sensor_id;sensor_type;location;lat;lon;timestamp;P1;durP1;ratioP1;P2;durP2;ratioP2
18659;SDS011;9459;50.254;19.014;2024-03-08T00:00:38;57.08;;;28.33;;
18659;SDS011;9459;50.254;19.014;2024-03-08T00:03:31;63.78;;;32.13;;
18659;SDS011;9459;50.254;19.014;2024-03-08T00:06:00;58.33;;;29.63;;
18659;SDS011;9459;50.254;19.014;2024-03-08T00:08:29;60.05;;;30.38;;
18659;SDS011;9459;50.254;19.014;2024-03-08T00:10:58;57.33;;;30.48;;
18659;SDS011;9459;50.254;19.014;2024-03-08T00:13:26;50.58;;;28.38;;
18659;SDS011;9459;50.254;19.014;2024-03-08T00:15:55;58.60;;;27.65;;
18659;SDS011;9459;50.254;19.014;2024-03-08T00:18:24;55.17;;;28.38;;
18659;SDS011;9459;50.254;19.014;2024-03-08T00:20:55;59.65;;;29.33;;
18659;SDS011;9459;50.254;19.014;2024-03-08T00:23:23;57.95;;;30.23;;
18659;SDS011;9459;50.254;19.014;2024-03-08T00:25:52;54.80;;;28.40;;
18659;SDS011;9459;50.254;19.014;2024-03-08T00:28:21;53.92;;;29.17;;
18659;SDS011;9459;50.254;19.014;2024-03-08T00:30:52;58.25;;;30.48;;
18659;SDS011;9459;50.254;19.014;2024-03-08T00:33:20;53.10;;;29.42;;
18659;SDS011;9459;50.254;19.014;2024-03-08T00:35:49;61.20;;;31.52;;
18659;SDS011;9459;50.254;19.014;2024-03-08T00:38:19;63.35;;;31.45;;
18659;SDS011;9459;50.254;19.014;2024-03-08T00:40:48;58.42;;;31.13;;
18659;SDS011;9459;50.254;19.014;2024-03-08T00:43:16;61.78;;;31.02;;
18659;SDS011;9459;50.254;19.014;2024-03-08T00:45:45;65.38;;;31.67;;
18659;SDS011;9459;50.254;19.014;2024-03-08T00:48:13;66.60;;;33.53;;
18659;SDS011;9459;50.254;19.014;2024-03-08T00:50:41;56.67;;;30.88;;
18659;SDS011;9459;50.254;19.014;2024-03-08T00:53:12;63.75;;;31.65;;
18659;SDS011;9459;50.254;19.014;2024-03-08T00:55:42;55.13;;;29.23;;
18659;SDS011;9459;50.254;19.014;2024-03-08T00:58:13;55.55;;;30.63;;
18659;SDS011;9459;50.254;19.014;2024-03-08T01:00:41;56.97;;;29.63;;
18659;SDS011;9459;50.254;19.014;2024-03-08T01:03:10;63.72;;;32.42;;
18659;SDS011;9459;50.254;19.014;2024-03-08T01:05:38;61.25;;;31.02;;
18659;SDS011;9459;50.254;19.014;2024-03-08T01:08:07;57.70;;;31.17;;
18659;SDS011;9459;50.254;19.014;2024-03-08T01:10:38;62.50;;;29.45;;
18659;SDS011;9459;50.254;19.014;2024-03-08T01:13:09;59.92;;;31.17;;
18659;SDS011;9459;50.254;19.014;2024-03-08T01:15:38;56.30;;;30.67;;
18659;SDS011;9459;50.254;19.014;2024-03-08T01:18:08;61.22;;;29.25;;
18659;SDS011;9459;50.254;19.014;2024-03-08T01:20:37;59.85;;;30.77;;
18659;SDS011;9459;50.254;19.014;2024-03-08T01:23:07;59.45;;;31.90;;
18659;SDS011;9459;50.254;19.014;2024-03-08T01:25:36;61.25;;;30.27;;
18659;SDS011;9459;50.254;19.014;2024-03-08T01:28:04;60.35;;;31.58;;
18659;SDS011;9459;50.254;19.014;2024-03-08T01:30:35;63.35;;;31.00;;
18659;SDS011;9459;50.254;19.014;2024-03-08T01:33:04;62.40;;;31.83;;
18659;SDS011;9459;50.254;19.014;2024-03-08T01:35:33;60.70;;;32.45;;
18659;SDS011;9459;50.254;19.014;2024-03-08T01:38:02;51.65;;;29.02;;
18659;SDS011;9459;50.254;19.014;2024-03-08T01:40:32;57.73;;;29.90;;
18659;SDS011;9459;50.254;19.014;2024-03-08T01:43:16;57.35;;;30.48;;
18659;SDS011;9459;50.254;19.014;2024-03-08T01:45:47;61.22;;;30.75;;
18659;SDS011;9459;50.254;19.014;2024-03-08T01:48:18;60.28;;;31.70;;
18659;SDS011;9459;50.254;19.014;2024-03-08T01:50:51;55.75;;;29.52;;
18659;SDS011;9459;50.254;19.014;2024-03-08T01:53:21;58.42;;;29.52;;
18659;SDS011;9459;50.254;19.014;2024-03-08T01:55:51;61.80;;;31.30;;
18659;SDS011;9459;50.254;19.014;2024-03-08T01:58:22;60.88;;;31.58;;
18659;SDS011;9459;50.254;19.014;2024-03-08T02:00:52;62.95;;;31.08;;
18659;SDS011;9459;50.254;19.014;2024-03-08T02:03:21;59.67;;;30.10;;
18659;SDS011;9459;50.254;19.014;2024-03-08T02:05:50;63.67;;;33.47;;
18659;SDS011;9459;50.254;19.014;2024-03-08T02:08:18;58.60;;;31.02;;
18659;SDS011;9459;50.254;19.014;2024-03-08T02:10:49;57.97;;;30.48;;
18659;SDS011;9459;50.254;19.014;2024-03-08T02:13:18;62.70;;;32.33;;
18659;SDS011;9459;50.254;19.014;2024-03-08T02:15:51;55.05;;;30.20;;
18659;SDS011;9459;50.254;19.014;2024-03-08T02:18:21;60.10;;;31.23;;
18659;SDS011;9459;50.254;19.014;2024-03-08T02:20:53;56.10;;;30.53;;
18659;SDS011;9459;50.254;19.014;2024-03-08T02:23:22;60.13;;;31.52;;
18659;SDS011;9459;50.254;19.014;2024-03-08T02:25:52;61.22;;;31.40;;
18659;SDS011;9459;50.254;19.014;2024-03-08T02:28:21;60.97;;;31.05;;
18659;SDS011;9459;50.254;19.014;2024-03-08T02:30:53;64.65;;;31.83;;
18659;SDS011;9459;50.254;19.014;2024-03-08T02:33:24;67.07;;;32.72;;
18659;SDS011;9459;50.254;19.014;2024-03-08T02:35:56;57.15;;;31.48;;
18659;SDS011;9459;50.254;19.014;2024-03-08T02:38:24;57.08;;;29.77;;
18659;SDS011;9459;50.254;19.014;2024-03-08T02:40:53;62.42;;;33.05;;
18659;SDS011;9459;50.254;19.014;2024-03-08T02:43:22;62.47;;;31.25;;
18659;SDS011;9459;50.254;19.014;2024-03-08T02:45:52;58.40;;;31.73;;
18659;SDS011;9459;50.254;19.014;2024-03-08T02:50:52;61.88;;;30.73;;
18659;SDS011;9459;50.254;19.014;2024-03-08T02:53:23;61.03;;;32.00;;
18659;SDS011;9459;50.254;19.014;2024-03-08T02:55:52;63.78;;;31.90;;
18659;SDS011;9459;50.254;19.014;2024-03-08T02:58:21;59.78;;;32.10;;
18659;SDS011;9459;50.254;19.014;2024-03-08T03:00:50;59.92;;;31.17;;
18659;SDS011;9459;50.254;19.014;2024-03-08T03:03:19;58.40;;;30.65;;
18659;SDS011;9459;50.254;19.014;2024-03-08T03:05:49;56.63;;;30.70;;
18659;SDS011;9459;50.254;19.014;2024-03-08T03:08:22;58.78;;;30.60;;
18659;SDS011;9459;50.254;19.014;2024-03-08T03:10:51;55.57;;;30.07;;
18659;SDS011;9459;50.254;19.014;2024-03-08T03:13:19;59.28;;;31.77;;
18659;SDS011;9459;50.254;19.014;2024-03-08T03:15:48;56.88;;;29.77;;
18659;SDS011;9459;50.254;19.014;2024-03-08T03:18:16;59.85;;;32.33;;
18659;SDS011;9459;50.254;19.014;2024-03-08T03:20:48;60.80;;;31.92;;
18659;SDS011;9459;50.254;19.014;2024-03-08T03:23:17;60.42;;;30.15;;
18659;SDS011;9459;50.254;19.014;2024-03-08T03:28:19;53.45;;;29.73;;
18659;SDS011;9459;50.254;19.014;2024-03-08T03:30:51;52.95;;;28.23;;
18659;SDS011;9459;50.254;19.014;2024-03-08T03:33:19;49.05;;;26.98;;
18659;SDS011;9459;50.254;19.014;2024-03-08T03:35:49;56.38;;;30.20;;
18659;SDS011;9459;50.254;19.014;2024-03-08T03:38:18;54.88;;;27.25;;
18659;SDS011;9459;50.254;19.014;2024-03-08T03:40:47;59.70;;;30.40;;
18659;SDS011;9459;50.254;19.014;2024-03-08T03:43:19;52.05;;;27.75;;
18659;SDS011;9459;50.254;19.014;2024-03-08T03:45:48;51.80;;;29.35;;
18659;SDS011;9459;50.254;19.014;2024-03-08T03:48:16;50.70;;;28.33;;
18659;SDS011;9459;50.254;19.014;2024-03-08T03:50:45;52.00;;;28.00;;
18659;SDS011;9459;50.254;19.014;2024-03-08T03:53:13;51.28;;;27.45;;
18659;SDS011;9459;50.254;19.014;2024-03-08T03:55:42;51.13;;;27.70;;
18659;SDS011;9459;50.254;19.014;2024-03-08T03:58:12;50.83;;;27.50;;
18659;SDS011;9459;50.254;19.014;2024-03-08T04:00:41;48.87;;;26.83;;
18659;SDS011;9459;50.254;19.014;2024-03-08T04:03:09;49.42;;;27.23;;
18659;SDS011;9459;50.254;19.014;2024-03-08T04:05:39;50.88;;;27.52;;
18659;SDS011;9459;50.254;19.014;2024-03-08T04:08:08;51.42;;;28.35;;
18659;SDS011;9459;50.254;19.014;2024-03-08T04:10:39;46.92;;;26.33;;
18659;SDS011;9459;50.254;19.014;2024-03-08T04:13:08;47.28;;;27.00;;
18659;SDS011;9459;50.254;19.014;2024-03-08T04:15:38;51.88;;;26.95;;
18659;SDS011;9459;50.254;19.014;2024-03-08T04:18:07;49.63;;;27.17;;
18659;SDS011;9459;50.254;19.014;2024-03-08T04:20:36;52.72;;;28.38;;
18659;SDS011;9459;50.254;19.014;2024-03-08T04:23:04;45.45;;;26.65;;
18659;SDS011;9459;50.254;19.014;2024-03-08T04:25:33;46.97;;;28.33;;
18659;SDS011;9459;50.254;19.014;2024-03-08T04:28:01;47.08;;;27.52;;
18659;SDS011;9459;50.254;19.014;2024-03-08T04:30:29;53.65;;;28.83;;
18659;SDS011;9459;50.254;19.014;2024-03-08T04:32:58;51.22;;;30.05;;
18659;SDS011;9459;50.254;19.014;2024-03-08T04:35:28;64.05;;;32.85;;
18659;SDS011;9459;50.254;19.014;2024-03-08T04:37:57;50.40;;;29.42;;
18659;SDS011;9459;50.254;19.014;2024-03-08T04:40:26;47.25;;;26.80;;
18659;SDS011;9459;50.254;19.014;2024-03-08T04:42:55;51.67;;;28.90;;
18659;SDS011;9459;50.254;19.014;2024-03-08T04:45:24;52.90;;;28.90;;
18659;SDS011;9459;50.254;19.014;2024-03-08T04:47:53;46.13;;;27.20;;
18659;SDS011;9459;50.254;19.014;2024-03-08T04:50:24;48.10;;;29.27;;
18659;SDS011;9459;50.254;19.014;2024-03-08T04:52:56;50.42;;;30.45;;
18659;SDS011;9459;50.254;19.014;2024-03-08T04:55:24;52.80;;;30.65;;
18659;SDS011;9459;50.254;19.014;2024-03-08T04:57:53;45.97;;;26.70;;
18659;SDS011;9459;50.254;19.014;2024-03-08T05:00:21;47.33;;;26.35;;
18659;SDS011;9459;50.254;19.014;2024-03-08T05:02:50;44.13;;;25.92;;
18659;SDS011;9459;50.254;19.014;2024-03-08T05:05:20;44.17;;;25.13;;
18659;SDS011;9459;50.254;19.014;2024-03-08T05:07:51;39.47;;;24.70;;
18659;SDS011;9459;50.254;19.014;2024-03-08T05:10:20;43.17;;;25.38;;
18659;SDS011;9459;50.254;19.014;2024-03-08T05:12:48;47.17;;;25.63;;
18659;SDS011;9459;50.254;19.014;2024-03-08T05:17:48;41.88;;;25.52;;
18659;SDS011;9459;50.254;19.014;2024-03-08T05:20:17;47.95;;;25.60;;
18659;SDS011;9459;50.254;19.014;2024-03-08T05:22:46;43.70;;;26.17;;
18659;SDS011;9459;50.254;19.014;2024-03-08T05:25:16;44.38;;;25.60;;
18659;SDS011;9459;50.254;19.014;2024-03-08T05:27:45;41.92;;;25.20;;
18659;SDS011;9459;50.254;19.014;2024-03-08T05:30:15;43.22;;;25.75;;
18659;SDS011;9459;50.254;19.014;2024-03-08T05:32:45;47.30;;;27.02;;
18659;SDS011;9459;50.254;19.014;2024-03-08T05:35:13;44.60;;;26.30;;
18659;SDS011;9459;50.254;19.014;2024-03-08T05:37:43;44.17;;;27.00;;
18659;SDS011;9459;50.254;19.014;2024-03-08T05:40:12;42.25;;;25.92;;
18659;SDS011;9459;50.254;19.014;2024-03-08T05:42:46;45.20;;;24.73;;
18659;SDS011;9459;50.254;19.014;2024-03-08T05:45:15;45.22;;;25.73;;
18659;SDS011;9459;50.254;19.014;2024-03-08T05:47:43;43.90;;;27.27;;
18659;SDS011;9459;50.254;19.014;2024-03-08T05:50:13;42.45;;;27.23;;
18659;SDS011;9459;50.254;19.014;2024-03-08T05:52:43;38.72;;;25.17;;
18659;SDS011;9459;50.254;19.014;2024-03-08T05:55:12;47.15;;;26.13;;
18659;SDS011;9459;50.254;19.014;2024-03-08T05:57:41;36.35;;;23.90;;
18659;SDS011;9459;50.254;19.014;2024-03-08T06:00:11;35.42;;;22.20;;
18659;SDS011;9459;50.254;19.014;2024-03-08T06:02:42;39.13;;;23.10;;
18659;SDS011;9459;50.254;19.014;2024-03-08T06:05:11;34.58;;;21.05;;
18659;SDS011;9459;50.254;19.014;2024-03-08T06:07:40;35.70;;;21.05;;
18659;SDS011;9459;50.254;19.014;2024-03-08T06:10:09;31.65;;;21.10;;
18659;SDS011;9459;50.254;19.014;2024-03-08T06:12:40;38.45;;;23.27;;
18659;SDS011;9459;50.254;19.014;2024-03-08T06:15:09;33.65;;;19.95;;
18659;SDS011;9459;50.254;19.014;2024-03-08T06:17:43;33.28;;;20.83;;
18659;SDS011;9459;50.254;19.014;2024-03-08T06:20:12;31.87;;;21.03;;
18659;SDS011;9459;50.254;19.014;2024-03-08T06:22:41;29.40;;;18.67;;
18659;SDS011;9459;50.254;19.014;2024-03-08T06:25:11;32.75;;;19.75;;
18659;SDS011;9459;50.254;19.014;2024-03-08T06:27:41;33.17;;;20.33;;
18659;SDS011;9459;50.254;19.014;2024-03-08T06:30:10;32.03;;;19.45;;
18659;SDS011;9459;50.254;19.014;2024-03-08T06:32:40;31.48;;;18.90;;
18659;SDS011;9459;50.254;19.014;2024-03-08T06:35:11;31.83;;;21.15;;
18659;SDS011;9459;50.254;19.014;2024-03-08T06:37:43;32.10;;;20.58;;
18659;SDS011;9459;50.254;19.014;2024-03-08T06:40:12;37.78;;;21.02;;
18659;SDS011;9459;50.254;19.014;2024-03-08T06:42:43;36.75;;;22.33;;
18659;SDS011;9459;50.254;19.014;2024-03-08T06:45:12;35.67;;;21.67;;
18659;SDS011;9459;50.254;19.014;2024-03-08T06:47:46;38.65;;;21.65;;
18659;SDS011;9459;50.254;19.014;2024-03-08T06:50:16;40.33;;;22.10;;
18659;SDS011;9459;50.254;19.014;2024-03-08T06:52:45;36.65;;;22.38;;
18659;SDS011;9459;50.254;19.014;2024-03-08T06:55:17;31.25;;;19.73;;
18659;SDS011;9459;50.254;19.014;2024-03-08T06:57:46;47.85;;;23.17;;
18659;SDS011;9459;50.254;19.014;2024-03-08T07:00:15;33.70;;;20.95;;
18659;SDS011;9459;50.254;19.014;2024-03-08T07:02:48;41.47;;;23.35;;
18659;SDS011;9459;50.254;19.014;2024-03-08T07:05:18;34.70;;;22.35;;
18659;SDS011;9459;50.254;19.014;2024-03-08T07:07:47;32.40;;;20.57;;
18659;SDS011;9459;50.254;19.014;2024-03-08T07:10:16;37.25;;;20.83;;
18659;SDS011;9459;50.254;19.014;2024-03-08T07:12:49;38.45;;;22.40;;
18659;SDS011;9459;50.254;19.014;2024-03-08T07:15:18;36.97;;;22.70;;
18659;SDS011;9459;50.254;19.014;2024-03-08T07:17:47;36.33;;;21.90;;
18659;SDS011;9459;50.254;19.014;2024-03-08T07:20:17;35.33;;;20.73;;
18659;SDS011;9459;50.254;19.014;2024-03-08T07:22:46;33.72;;;19.77;;
18659;SDS011;9459;50.254;19.014;2024-03-08T07:25:18;36.40;;;23.30;;
18659;SDS011;9459;50.254;19.014;2024-03-08T07:27:49;36.15;;;21.60;;
18659;SDS011;9459;50.254;19.014;2024-03-08T07:30:19;34.30;;;20.27;;
18659;SDS011;9459;50.254;19.014;2024-03-08T07:33:17;31.90;;;19.38;;
18659;SDS011;9459;50.254;19.014;2024-03-08T07:35:47;37.28;;;19.73;;
18659;SDS011;9459;50.254;19.014;2024-03-08T07:40:48;37.70;;;19.77;;
18659;SDS011;9459;50.254;19.014;2024-03-08T07:43:16;32.90;;;20.10;;
18659;SDS011;9459;50.254;19.014;2024-03-08T07:45:45;36.72;;;21.55;;
18659;SDS011;9459;50.254;19.014;2024-03-08T07:48:14;34.15;;;21.00;;
18659;SDS011;9459;50.254;19.014;2024-03-08T07:50:43;32.08;;;19.95;;
18659;SDS011;9459;50.254;19.014;2024-03-08T07:53:13;33.15;;;21.15;;
18659;SDS011;9459;50.254;19.014;2024-03-08T07:55:42;35.17;;;20.00;;
18659;SDS011;9459;50.254;19.014;2024-03-08T07:58:11;35.58;;;21.25;;
18659;SDS011;9459;50.254;19.014;2024-03-08T08:00:40;33.33;;;20.23;;
18659;SDS011;9459;50.254;19.014;2024-03-08T08:03:10;36.63;;;22.15;;
18659;SDS011;9459;50.254;19.014;2024-03-08T08:05:40;34.67;;;21.45;;
18659;SDS011;9459;50.254;19.014;2024-03-08T08:08:08;34.20;;;20.85;;
18659;SDS011;9459;50.254;19.014;2024-03-08T08:10:39;36.13;;;20.77;;
18659;SDS011;9459;50.254;19.014;2024-03-08T08:13:09;39.40;;;22.92;;
18659;SDS011;9459;50.254;19.014;2024-03-08T08:15:38;33.92;;;18.73;;
18659;SDS011;9459;50.254;19.014;2024-03-08T08:18:07;39.13;;;21.77;;
18659;SDS011;9459;50.254;19.014;2024-03-08T08:20:37;40.10;;;22.73;;
18659;SDS011;9459;50.254;19.014;2024-03-08T08:23:05;35.38;;;20.40;;
18659;SDS011;9459;50.254;19.014;2024-03-08T08:25:34;40.78;;;22.98;;
18659;SDS011;9459;50.254;19.014;2024-03-08T08:28:05;32.45;;;19.80;;
18659;SDS011;9459;50.254;19.014;2024-03-08T08:30:34;33.63;;;20.57;;
18659;SDS011;9459;50.254;19.014;2024-03-08T08:33:02;33.00;;;20.25;;
18659;SDS011;9459;50.254;19.014;2024-03-08T08:38:01;30.80;;;18.10;;
18659;SDS011;9459;50.254;19.014;2024-03-08T08:40:31;30.83;;;18.63;;
18659;SDS011;9459;50.254;19.014;2024-03-08T08:43:00;28.90;;;17.45;;
18659;SDS011;9459;50.254;19.014;2024-03-08T08:45:32;28.35;;;18.90;;
18659;SDS011;9459;50.254;19.014;2024-03-08T08:48:01;30.88;;;19.17;;
18659;SDS011;9459;50.254;19.014;2024-03-08T08:50:29;35.22;;;19.92;;
18659;SDS011;9459;50.254;19.014;2024-03-08T08:52:59;27.52;;;17.48;;
18659;SDS011;9459;50.254;19.014;2024-03-08T08:55:27;28.58;;;16.65;;
18659;SDS011;9459;50.254;19.014;2024-03-08T08:57:58;27.60;;;17.90;;
18659;SDS011;9459;50.254;19.014;2024-03-08T09:00:26;28.95;;;18.98;;
18659;SDS011;9459;50.254;19.014;2024-03-08T09:02:56;32.90;;;17.40;;
18659;SDS011;9459;50.254;19.014;2024-03-08T09:05:27;34.67;;;18.17;;
18659;SDS011;9459;50.254;19.014;2024-03-08T09:07:55;30.23;;;19.40;;
18659;SDS011;9459;50.254;19.014;2024-03-08T09:10:24;34.30;;;19.88;;
18659;SDS011;9459;50.254;19.014;2024-03-08T09:12:59;31.70;;;18.67;;
18659;SDS011;9459;50.254;19.014;2024-03-08T09:15:31;32.90;;;20.25;;
18659;SDS011;9459;50.254;19.014;2024-03-08T09:18:01;32.65;;;19.83;;
18659;SDS011;9459;50.254;19.014;2024-03-08T09:20:32;29.90;;;18.55;;
18659;SDS011;9459;50.254;19.014;2024-03-08T09:23:00;33.13;;;19.75;;
18659;SDS011;9459;50.254;19.014;2024-03-08T09:25:29;27.40;;;18.33;;
18659;SDS011;9459;50.254;19.014;2024-03-08T09:27:57;37.65;;;20.20;;
18659;SDS011;9459;50.254;19.014;2024-03-08T09:30:26;32.33;;;19.25;;
18659;SDS011;9459;50.254;19.014;2024-03-08T09:32:55;32.08;;;19.58;;
18659;SDS011;9459;50.254;19.014;2024-03-08T09:35:27;35.70;;;21.73;;
18659;SDS011;9459;50.254;19.014;2024-03-08T09:40:25;33.25;;;20.00;;
18659;SDS011;9459;50.254;19.014;2024-03-08T09:42:54;27.85;;;18.83;;
18659;SDS011;9459;50.254;19.014;2024-03-08T09:45:24;28.92;;;18.52;;
18659;SDS011;9459;50.254;19.014;2024-03-08T09:47:53;36.10;;;22.08;;
18659;SDS011;9459;50.254;19.014;2024-03-08T09:50:27;36.15;;;22.20;;
18659;SDS011;9459;50.254;19.014;2024-03-08T09:52:56;33.88;;;21.00;;
18659;SDS011;9459;50.254;19.014;2024-03-08T09:55:25;31.02;;;20.88;;
18659;SDS011;9459;50.254;19.014;2024-03-08T09:57:59;34.03;;;20.83;;
18659;SDS011;9459;50.254;19.014;2024-03-08T10:00:42;33.08;;;19.52;;
18659;SDS011;9459;50.254;19.014;2024-03-08T10:03:10;31.40;;;20.48;;
18659;SDS011;9459;50.254;19.014;2024-03-08T10:05:43;31.92;;;20.15;;
18659;SDS011;9459;50.254;19.014;2024-03-08T10:08:12;28.57;;;18.53;;
18659;SDS011;9459;50.254;19.014;2024-03-08T10:10:41;31.77;;;20.30;;
18659;SDS011;9459;50.254;19.014;2024-03-08T10:13:10;29.17;;;19.45;;
18659;SDS011;9459;50.254;19.014;2024-03-08T10:15:40;32.95;;;21.23;;
18659;SDS011;9459;50.254;19.014;2024-03-08T10:18:08;27.23;;;17.40;;
18659;SDS011;9459;50.254;19.014;2024-03-08T10:20:37;25.85;;;17.45;;
18659;SDS011;9459;50.254;19.014;2024-03-08T10:23:07;24.65;;;16.80;;
18659;SDS011;9459;50.254;19.014;2024-03-08T10:25:38;26.55;;;18.05;;
18659;SDS011;9459;50.254;19.014;2024-03-08T10:28:06;20.70;;;14.63;;
18659;SDS011;9459;50.254;19.014;2024-03-08T10:30:35;26.77;;;17.48;;
18659;SDS011;9459;50.254;19.014;2024-03-08T10:33:04;21.95;;;16.48;;
18659;SDS011;9459;50.254;19.014;2024-03-08T10:35:34;23.35;;;18.38;;
18659;SDS011;9459;50.254;19.014;2024-03-08T10:38:02;23.33;;;16.17;;
18659;SDS011;9459;50.254;19.014;2024-03-08T10:40:36;24.33;;;16.75;;
18659;SDS011;9459;50.254;19.014;2024-03-08T10:43:08;22.02;;;16.83;;
18659;SDS011;9459;50.254;19.014;2024-03-08T10:45:40;22.73;;;15.93;;
18659;SDS011;9459;50.254;19.014;2024-03-08T10:48:17;22.98;;;18.00;;
18659;SDS011;9459;50.254;19.014;2024-03-08T10:50:59;26.73;;;20.05;;
18659;SDS011;9459;50.254;19.014;2024-03-08T10:53:30;23.45;;;17.67;;
18659;SDS011;9459;50.254;19.014;2024-03-08T10:56:01;21.73;;;16.58;;
18659;SDS011;9459;50.254;19.014;2024-03-08T10:58:29;21.60;;;16.25;;
18659;SDS011;9459;50.254;19.014;2024-03-08T11:00:59;20.42;;;16.25;;
18659;SDS011;9459;50.254;19.014;2024-03-08T11:03:46;21.08;;;16.30;;
18659;SDS011;9459;50.254;19.014;2024-03-08T11:06:22;21.48;;;16.27;;
18659;SDS011;9459;50.254;19.014;2024-03-08T11:08:57;18.67;;;15.43;;
18659;SDS011;9459;50.254;19.014;2024-03-08T11:11:28;21.13;;;16.85;;
18659;SDS011;9459;50.254;19.014;2024-03-08T11:14:02;21.63;;;17.90;;
18659;SDS011;9459;50.254;19.014;2024-03-08T11:16:38;21.17;;;16.30;;
18659;SDS011;9459;50.254;19.014;2024-03-08T11:19:23;20.77;;;16.13;;
18659;SDS011;9459;50.254;19.014;2024-03-08T11:21:57;19.05;;;15.27;;
18659;SDS011;9459;50.254;19.014;2024-03-08T11:24:26;20.80;;;15.93;;
18659;SDS011;9459;50.254;19.014;2024-03-08T11:26:57;21.63;;;16.17;;
18659;SDS011;9459;50.254;19.014;2024-03-08T11:29:36;21.60;;;16.02;;
18659;SDS011;9459;50.254;19.014;2024-03-08T11:32:08;21.17;;;16.50;;
18659;SDS011;9459;50.254;19.014;2024-03-08T11:34:37;22.42;;;16.35;;
18659;SDS011;9459;50.254;19.014;2024-03-08T11:37:10;22.20;;;17.55;;
18659;SDS011;9459;50.254;19.014;2024-03-08T11:39:39;22.75;;;17.75;;
18659;SDS011;9459;50.254;19.014;2024-03-08T11:42:09;23.90;;;17.80;;
18659;SDS011;9459;50.254;19.014;2024-03-08T11:44:39;23.60;;;18.10;;
18659;SDS011;9459;50.254;19.014;2024-03-08T11:47:12;25.35;;;18.20;;
18659;SDS011;9459;50.254;19.014;2024-03-08T11:49:41;21.20;;;16.83;;
18659;SDS011;9459;50.254;19.014;2024-03-08T11:52:11;23.48;;;17.17;;
18659;SDS011;9459;50.254;19.014;2024-03-08T11:54:40;18.92;;;16.05;;
18659;SDS011;9459;50.254;19.014;2024-03-08T11:57:11;24.50;;;17.25;;
18659;SDS011;9459;50.254;19.014;2024-03-08T11:59:40;23.20;;;18.60;;
18659;SDS011;9459;50.254;19.014;2024-03-08T12:02:09;23.52;;;18.77;;
18659;SDS011;9459;50.254;19.014;2024-03-08T12:04:38;24.23;;;20.02;;
18659;SDS011;9459;50.254;19.014;2024-03-08T12:07:09;26.98;;;20.17;;
18659;SDS011;9459;50.254;19.014;2024-03-08T12:09:39;28.52;;;19.63;;
18659;SDS011;9459;50.254;19.014;2024-03-08T12:12:14;24.40;;;19.00;;
18659;SDS011;9459;50.254;19.014;2024-03-08T12:14:43;26.73;;;20.02;;
18659;SDS011;9459;50.254;19.014;2024-03-08T12:17:12;30.58;;;23.10;;
18659;SDS011;9459;50.254;19.014;2024-03-08T12:19:45;30.17;;;22.02;;
18659;SDS011;9459;50.254;19.014;2024-03-08T12:22:15;30.40;;;22.15;;
18659;SDS011;9459;50.254;19.014;2024-03-08T12:24:43;31.77;;;23.33;;
18659;SDS011;9459;50.254;19.014;2024-03-08T12:27:21;29.03;;;20.83;;
18659;SDS011;9459;50.254;19.014;2024-03-08T12:29:49;30.35;;;21.23;;
18659;SDS011;9459;50.254;19.014;2024-03-08T12:32:19;28.38;;;20.50;;
18659;SDS011;9459;50.254;19.014;2024-03-08T12:34:51;28.48;;;20.20;;
18659;SDS011;9459;50.254;19.014;2024-03-08T12:37:21;29.85;;;20.98;;
18659;SDS011;9459;50.254;19.014;2024-03-08T12:39:50;32.30;;;22.25;;
18659;SDS011;9459;50.254;19.014;2024-03-08T12:42:19;30.75;;;21.20;;
18659;SDS011;9459;50.254;19.014;2024-03-08T12:44:49;32.17;;;21.83;;
18659;SDS011;9459;50.254;19.014;2024-03-08T12:47:18;34.80;;;21.83;;
18659;SDS011;9459;50.254;19.014;2024-03-08T12:49:47;34.10;;;22.38;;
18659;SDS011;9459;50.254;19.014;2024-03-08T12:52:16;32.15;;;20.15;;
18659;SDS011;9459;50.254;19.014;2024-03-08T12:54:45;83.75;;;41.60;;
18659;SDS011;9459;50.254;19.014;2024-03-08T12:57:14;31.38;;;21.15;;
18659;SDS011;9459;50.254;19.014;2024-03-08T12:59:43;30.67;;;21.08;;
18659;SDS011;9459;50.254;19.014;2024-03-08T13:02:14;29.73;;;20.88;;
18659;SDS011;9459;50.254;19.014;2024-03-08T13:04:43;31.75;;;21.67;;
18659;SDS011;9459;50.254;19.014;2024-03-08T13:07:12;33.35;;;21.98;;
18659;SDS011;9459;50.254;19.014;2024-03-08T13:09:43;34.60;;;22.35;;
18659;SDS011;9459;50.254;19.014;2024-03-08T13:12:13;30.02;;;21.10;;
18659;SDS011;9459;50.254;19.014;2024-03-08T13:14:42;39.03;;;24.02;;
18659;SDS011;9459;50.254;19.014;2024-03-08T13:17:10;38.83;;;23.65;;
18659;SDS011;9459;50.254;19.014;2024-03-08T13:19:40;36.80;;;22.85;;
18659;SDS011;9459;50.254;19.014;2024-03-08T13:22:09;36.05;;;22.48;;
18659;SDS011;9459;50.254;19.014;2024-03-08T13:24:39;34.08;;;21.17;;
18659;SDS011;9459;50.254;19.014;2024-03-08T13:27:08;35.58;;;23.55;;
18659;SDS011;9459;50.254;19.014;2024-03-08T13:29:46;35.22;;;23.30;;
18659;SDS011;9459;50.254;19.014;2024-03-08T13:32:18;33.50;;;22.30;;
18659;SDS011;9459;50.254;19.014;2024-03-08T13:34:48;34.22;;;23.02;;
18659;SDS011;9459;50.254;19.014;2024-03-08T13:37:18;34.38;;;22.50;;
18659;SDS011;9459;50.254;19.014;2024-03-08T13:39:46;38.65;;;23.95;;
18659;SDS011;9459;50.254;19.014;2024-03-08T13:42:15;36.28;;;22.40;;
18659;SDS011;9459;50.254;19.014;2024-03-08T13:44:44;33.42;;;21.33;;
18659;SDS011;9459;50.254;19.014;2024-03-08T13:47:13;39.10;;;24.30;;
18659;SDS011;9459;50.254;19.014;2024-03-08T13:49:42;33.88;;;21.58;;
18659;SDS011;9459;50.254;19.014;2024-03-08T13:52:13;34.33;;;20.45;;
18659;SDS011;9459;50.254;19.014;2024-03-08T13:54:41;35.70;;;21.58;;
18659;SDS011;9459;50.254;19.014;2024-03-08T13:57:10;35.67;;;23.42;;
18659;SDS011;9459;50.254;19.014;2024-03-08T13:59:38;55.47;;;33.50;;
18659;SDS011;9459;50.254;19.014;2024-03-08T14:02:07;37.30;;;24.10;;
18659;SDS011;9459;50.254;19.014;2024-03-08T14:04:41;56.05;;;32.33;;
18659;SDS011;9459;50.254;19.014;2024-03-08T14:07:10;36.47;;;22.52;;
18659;SDS011;9459;50.254;19.014;2024-03-08T14:09:39;35.28;;;20.67;;
18659;SDS011;9459;50.254;19.014;2024-03-08T14:12:11;38.30;;;25.17;;
18659;SDS011;9459;50.254;19.014;2024-03-08T14:14:42;62.83;;;37.60;;
18659;SDS011;9459;50.254;19.014;2024-03-08T14:17:11;67.32;;;39.67;;
18659;SDS011;9459;50.254;19.014;2024-03-08T14:19:44;42.78;;;25.02;;
18659;SDS011;9459;50.254;19.014;2024-03-08T14:22:12;60.03;;;35.03;;
18659;SDS011;9459;50.254;19.014;2024-03-08T14:24:43;45.60;;;26.27;;
18659;SDS011;9459;50.254;19.014;2024-03-08T14:27:13;35.47;;;21.73;;
18659;SDS011;9459;50.254;19.014;2024-03-08T14:29:45;66.55;;;41.78;;
18659;SDS011;9459;50.254;19.014;2024-03-08T14:32:15;36.00;;;22.77;;
18659;SDS011;9459;50.254;19.014;2024-03-08T14:34:49;57.70;;;33.92;;
18659;SDS011;9459;50.254;19.014;2024-03-08T14:37:18;52.53;;;30.17;;
18659;SDS011;9459;50.254;19.014;2024-03-08T14:39:51;41.38;;;27.17;;
18659;SDS011;9459;50.254;19.014;2024-03-08T14:42:22;36.15;;;24.23;;
18659;SDS011;9459;50.254;19.014;2024-03-08T14:44:50;33.03;;;22.52;;
18659;SDS011;9459;50.254;19.014;2024-03-08T14:47:21;32.63;;;21.95;;
18659;SDS011;9459;50.254;19.014;2024-03-08T14:49:50;34.15;;;24.10;;
18659;SDS011;9459;50.254;19.014;2024-03-08T14:52:18;73.20;;;44.10;;